Time;durP1;ratioP1;P1;durP2;ratioP2;P2;SDS_P1;SDS_P2;PMS_P1;PMS_P2;Temp;Humidity;BMP_temperature;BMP_pressure;BME280_temperature;BME280_humidity;BME280_pressure;Samples;Min_cycle;Max_cycle;Signal;HPM_P1;HPM_P2
2021/03/15 00:01:13;;;;;;;5.50;4.95;;;;;;;1.93;80.73;96288.09;5076427;28;20040;-74
2021/03/15 00:03:40;;;;;;;6.95;5.20;;;;;;;1.92;80.84;96283.09;5076050;28;20048;-73
2021/03/15 00:06:06;;;;;;;6.35;4.47;;;;;;;1.92;80.78;96288.25;5076329;28;20374;-74
2021/03/15 00:08:33;;;;;;;8.50;5.78;;;;;;;1.89;80.74;96281.66;5075972;28;20053;-73
2021/03/15 00:11:00;;;;;;;7.22;4.80;;;;;;;1.85;80.81;96285.53;5076599;28;20056;-74
2021/03/15 00:13:27;;;;;;;7.22;5.43;;;;;;;1.82;80.76;96286.66;5076162;28;20045;-73
2021/03/15 00:15:56;;;;;;;6.03;4.90;;;;;;;1.80;80.79;96277.47;5076513;28;20048;-73
2021/03/15 00:18:23;;;;;;;9.10;5.10;;;;;;;1.79;80.78;96275.84;5074962;28;20400;-74
2021/03/15 00:20:50;;;;;;;6.25;4.60;;;;;;;1.76;80.80;96273.59;5076127;28;20052;-74
2021/03/15 00:23:16;;;;;;;6.40;5.00;;;;;;;1.76;80.87;96278.75;5074122;28;20413;-74
2021/03/15 00:25:42;;;;;;;7.82;4.70;;;;;;;1.74;80.88;96278.94;5075321;28;20055;-74
2021/03/15 00:28:09;;;;;;;6.63;4.55;;;;;;;1.74;81.00;96285.88;5076389;28;20045;-74
2021/03/15 00:30:36;;;;;;;7.03;5.20;;;;;;;1.73;81.11;96285.06;5060140;28;20052;-74
2021/03/15 00:33:02;;;;;;;10.93;5.63;;;;;;;1.72;81.08;96283.47;5075558;28;20041;-74
2021/03/15 00:35:29;;;;;;;7.82;5.28;;;;;;;1.72;81.29;96270.56;5075233;28;20040;-75
2021/03/15 00:37:55;;;;;;;8.05;5.10;;;;;;;1.73;81.25;96279.91;5075495;28;20037;-74
2021/03/15 00:40:22;;;;;;;7.75;5.20;;;;;;;1.72;81.24;96277.47;5075754;28;20041;-74
2021/03/15 00:42:50;;;;;;;8.02;5.18;;;;;;;1.73;81.29;96274.75;5075606;28;20515;-74
2021/03/15 00:45:20;;;;;;;5.05;4.40;;;;;;;1.72;81.23;96280.06;5075585;28;20049;-74
2021/03/15 00:47:47;;;;;;;6.97;4.32;;;;;;;1.74;81.32;96278.94;5062429;28;20047;-74
2021/03/15 00:50:40;;;;;;;7.28;4.90;;;;;;;1.75;81.41;96284.91;5075374;28;20040;-75
2021/03/15 00:53:06;;;;;;;7.30;4.43;;;;;;;1.72;81.18;96278.31;5065486;28;20457;-74
2021/03/15 00:55:33;;;;;;;6.05;4.70;;;;;;;1.73;81.38;96259.22;5075255;28;20028;-74
2021/03/15 00:57:59;;;;;;;4.93;4.43;;;;;;;1.72;81.42;96262.81;5075281;28;20039;-74
2021/03/15 01:00:28;;;;;;;5.05;4.55;;;;;;;1.71;81.38;96263.75;5075255;28;20040;-74
2021/03/15 01:02:55;;;;;;;8.02;5.15;;;;;;;1.72;81.45;96256.81;5075939;28;20047;-74
2021/03/15 01:05:25;;;;;;;9.18;4.82;;;;;;;1.73;81.52;96250.69;5073997;28;20036;-75
2021/03/15 01:07:51;;;;;;;6.05;4.68;;;;;;;1.73;81.24;96248.09;5075165;28;20044;-74
2021/03/15 01:10:22;;;;;;;7.22;4.55;;;;;;;1.74;81.53;96245.34;5074898;28;20420;-74
2021/03/15 01:12:48;;;;;;;5.82;4.60;;;;;;;1.74;81.51;96252.28;5075548;28;20505;-74
2021/03/15 01:15:18;;;;;;;5.43;4.68;;;;;;;1.74;81.53;96252.28;5074931;28;20055;-74
2021/03/15 01:17:45;;;;;;;7.78;4.70;;;;;;;1.72;81.42;96256.81;5075078;28;20037;-74
2021/03/15 01:20:12;;;;;;;5.93;4.57;;;;;;;1.71;81.39;96261.16;5075019;28;20037;-74
2021/03/15 01:22:38;;;;;;;5.28;3.78;;;;;;;1.70;81.36;96258.75;5074726;28;20048;-74
2021/03/15 01:25:06;;;;;;;5.70;4.40;;;;;;;1.71;81.37;96260.38;5057315;28;20040;-74
2021/03/15 01:27:32;;;;;;;5.22;4.20;;;;;;;1.68;81.39;96258.09;5074696;28;20036;-74
2021/03/15 01:29:58;;;;;;;6.03;4.40;;;;;;;1.68;81.26;96265.84;5074804;28;20048;-75
2021/03/15 01:32:25;;;;;;;6.53;4.60;;;;;;;1.66;81.39;96268.63;5074709;28;20043;-75
2021/03/15 01:34:51;;;;;;;4.80;3.92;;;;;;;1.63;81.29;96259.41;5073925;28;20055;-74
2021/03/15 01:37:17;;;;;;;6.82;4.72;;;;;;;1.63;81.29;96258.59;5075184;28;20039;-74
2021/03/15 01:39:43;;;;;;;6.50;4.10;;;;;;;1.64;81.48;96260.25;5074634;28;20039;-74
2021/03/15 01:42:10;;;;;;;6.45;4.15;;;;;;;1.62;81.49;96249.25;5074567;28;20052;-75
2021/03/15 01:44:36;;;;;;;4.93;3.65;;;;;;;1.63;81.54;96250.84;5074255;28;20515;-74
2021/03/15 01:47:02;;;;;;;5.28;4.22;;;;;;;1.61;81.55;96240.69;5073279;28;20036;-75
2021/03/15 01:49:29;;;;;;;5.32;4.22;;;;;;;1.59;81.69;96239.25;5074429;28;20040;-74
2021/03/15 01:51:56;;;;;;;5.35;4.22;;;;;;;1.58;81.68;96228.09;5074174;28;20040;-74
2021/03/15 01:54:23;;;;;;;5.35;4.18;;;;;;;1.58;81.72;96229.88;5074267;28;20404;-75
2021/03/15 01:56:49;;;;;;;6.25;4.57;;;;;;;1.59;81.78;96221.16;5074254;28;20041;-75
2021/03/15 01:59:16;;;;;;;6.28;4.40;;;;;;;1.60;81.87;96218.41;5073989;28;20384;-74
2021/03/15 02:01:47;;;;;;;7.82;4.38;;;;;;;1.61;81.93;96206.28;5074493;28;20451;-74
2021/03/15 02:04:14;;;;;;;5.70;3.90;;;;;;;1.61;81.67;96203.69;5074224;28;20473;-74
2021/03/15 02:06:41;;;;;;;5.80;4.35;;;;;;;1.63;82.06;96197.38;5073880;28;20043;-74
2021/03/15 02:09:07;;;;;;;4.75;4.18;;;;;;;1.66;82.09;96185.09;5073750;28;20049;-74
2021/03/15 02:11:36;;;;;;;7.90;4.20;;;;;;;1.65;82.10;96183.50;5073836;28;20047;-75
2021/03/15 02:14:18;;;;;;;7.25;4.28;;;;;;;1.66;82.19;96182.50;5074271;28;20048;-74
2021/03/15 02:17:06;;;;;;;6.82;4.20;;;;;;;1.66;82.07;96167.81;5073903;28;20465;-74
2021/03/15 02:20:13;;;;;;;8.07;4.40;;;;;;;1.65;82.49;96167.97;5073869;28;20465;-74
2021/03/15 02:23:14;;;;;;;6.07;4.30;;;;;;;1.65;82.35;96160.22;5073650;28;20041;-74
2021/03/15 02:26:14;;;;;;;6.50;3.97;;;;;;;1.63;82.21;96152.63;5073778;28;20044;-74
2021/03/15 02:28:52;;;;;;;4.78;3.58;;;;;;;1.61;82.04;96157.16;5073458;28;20040;-74
2021/03/15 02:31:36;;;;;;;7.05;3.88;;;;;;;1.58;81.97;96147.19;5073616;28;20055;-75
2021/03/15 02:34:26;;;;;;;7.13;3.85;;;;;;;1.56;81.77;96139.59;5073734;28;20036;-74
2021/03/15 02:36:55;;;;;;;4.72;3.60;;;;;;;1.55;81.53;96139.75;5074017;28;20048;-74
2021/03/15 02:39:24;;;;;;;6.97;3.95;;;;;;;1.54;81.66;96135.56;5073278;28;20030;-74
2021/03/15 02:41:55;;;;;;;6.10;4.15;;;;;;;1.52;81.65;96148.66;5073420;28;20032;-74
2021/03/15 02:44:21;;;;;;;5.72;4.20;;;;;;;1.51;81.90;96151.41;5073823;28;20029;-74
2021/03/15 02:46:49;;;;;;;9.30;4.88;;;;;;;1.49;82.28;96155.94;5073218;28;20051;-74
2021/03/15 02:49:17;;;;;;;7.55;5.05;;;;;;;1.46;82.66;96151.09;5073336;28;20056;-74
2021/03/15 02:51:47;;;;;;;8.23;4.88;;;;;;;1.42;82.82;96145.47;5073326;28;20048;-74
2021/03/15 02:54:14;;;;;;;11.25;4.93;;;;;;;1.38;82.63;96128.69;5073130;28;20044;-73
2021/03/15 02:56:45;;;;;;;9.48;4.75;;;;;;;1.33;83.60;96129.19;5073097;28;20457;-74
2021/03/15 02:59:14;;;;;;;7.82;4.30;;;;;;;1.28;83.85;96123.72;5072961;28;20043;-74
2021/03/15 03:01:44;;;;;;;11.30;4.65;;;;;;;1.30;83.92;96120.97;5073272;28;20392;-74
2021/03/15 03:04:11;;;;;;;9.82;4.15;;;;;;;1.29;83.88;96116.78;5073142;28;20051;-74
2021/03/15 03:06:41;;;;;;;9.13;3.97;;;;;;;1.31;83.92;96120.81;5073092;28;20051;-74
2021/03/15 03:09:11;;;;;;;8.88;4.40;;;;;;;1.34;83.76;96112.69;5073160;28;20048;-74
2021/03/15 03:11:38;;;;;;;11.13;4.45;;;;;;;1.32;83.52;96112.06;5072656;28;20051;-73
2021/03/15 03:14:10;;;;;;;7.68;4.38;;;;;;;1.24;83.82;96108.72;5072700;28;20112;-74
2021/03/15 03:16:39;;;;;;;8.02;4.82;;;;;;;1.18;83.80;96100.69;5073831;28;20037;-74
2021/03/15 03:19:08;;;;;;;7.85;4.90;;;;;;;1.12;84.22;96090.22;5073083;28;20035;-74
2021/03/15 03:21:45;;;;;;;8.88;4.80;;;;;;;1.10;84.23;96082.63;5073289;28;20055;-73
2021/03/15 03:24:14;;;;;;;7.47;4.20;;;;;;;1.09;84.56;96077.63;5073086;28;20388;-74
2021/03/15 03:26:42;;;;;;;10.13;4.28;;;;;;;1.11;84.48;96080.84;5072800;28;20400;-74
2021/03/15 03:29:11;;;;;;;7.70;4.25;;;;;;;1.17;84.55;96080.19;5072937;28;20051;-74
2021/03/15 03:31:41;;;;;;;8.35;4.03;;;;;;;1.20;84.46;96065.16;5072711;28;20028;-74
2021/03/15 03:34:08;;;;;;;9.43;4.22;;;;;;;1.20;84.40;96066.94;5072720;28;20032;-74
2021/03/15 03:36:35;;;;;;;11.07;4.95;;;;;;;1.19;84.46;96070.47;5072494;28;20056;-74
2021/03/15 03:39:04;;;;;;;7.80;4.20;;;;;;;1.13;84.51;96066.00;5072495;28;20052;-74
2021/03/15 03:41:30;;;;;;;7.28;4.35;;;;;;;1.14;84.71;96067.63;5072640;28;20027;-74
2021/03/15 03:43:57;;;;;;;11.70;4.20;;;;;;;1.15;84.63;96069.19;5073049;28;20036;-73
2021/03/15 03:46:23;;;;;;;7.00;4.25;;;;;;;1.15;84.70;96062.25;5072653;28;20040;-73
2021/03/15 03:48:50;;;;;;;6.95;3.80;;;;;;;1.20;84.86;96056.59;5071518;28;20047;-74
2021/03/15 03:51:20;;;;;;;10.43;3.50;;;;;;;1.28;85.27;96066.06;5072177;28;20059;-74
2021/03/15 03:53:49;;;;;;;8.30;3.90;;;;;;;1.32;84.89;96055.22;5072745;28;20487;-74
2021/03/15 03:56:34;;;;;;;13.60;4.88;;;;;;;1.37;85.47;96047.78;5072697;28;20410;-73
2021/03/15 03:59:00;;;;;;;;;;;;;;;1.39;86.61;96039.88;5073047;28;20461;-73
2021/03/15 04:01:41;;;;;;;12.55;5.03;;;;;;;1.37;85.92;96045.22;5072801;28;19915;-73
2021/03/15 04:04:10;;;;;;;6.40;4.60;;;;;;;1.37;85.26;96045.22;5062185;28;20033;-73
2021/03/15 04:06:38;;;;;;;7.65;4.68;;;;;;;1.37;85.54;96034.09;5072529;28;20473;-73
2021/03/15 04:09:12;;;;;;;6.57;4.60;;;;;;;1.33;85.77;96033.59;5072743;28;20048;-73
2021/03/15 04:11:44;;;;;;;10.70;4.68;;;;;;;1.36;85.66;96032.47;5076286;28;20060;-73
2021/03/15 04:14:16;;;;;;;7.15;4.72;;;;;;;1.42;85.73;96031.78;5076181;28;20384;-73
2021/03/15 04:16:43;;;;;;;8.52;5.22;;;;;;;1.46;85.59;96027.09;5076144;28;20049;-73
2021/03/15 04:19:10;;;;;;;8.23;4.55;;;;;;;1.48;85.60;96027.72;5076136;28;20040;-73
2021/03/15 04:21:40;;;;;;;10.63;5.05;;;;;;;1.52;85.63;96036.75;5075998;28;20036;-73
2021/03/15 04:24:08;;;;;;;8.90;5.13;;;;;;;1.49;85.61;96037.88;5076094;28;20392;-73
2021/03/15 04:26:35;;;;;;;8.02;4.50;;;;;;;1.51;85.82;96027.34;5076137;28;20041;-73
2021/03/15 04:29:03;;;;;;;12.73;4.78;;;;;;;1.53;85.75;96028.78;5064860;28;20496;-73
2021/03/15 04:31:30;;;;;;;8.20;4.97;;;;;;;1.56;85.61;96027.66;5075938;28;20037;-73
2021/03/15 04:33:56;;;;;;;11.15;5.30;;;;;;;1.54;85.63;96027.84;5075834;28;20040;-72
2021/03/15 04:36:23;;;;;;;6.78;4.80;;;;;;;1.56;85.80;96020.72;5075998;28;20450;-72
2021/03/15 04:38:50;;;;;;;10.68;4.78;;;;;;;1.53;86.12;96015.88;5075917;28;20059;-73
2021/03/15 04:41:17;;;;;;;7.80;4.60;;;;;;;1.52;86.09;96005.72;5075825;28;20058;-72
2021/03/15 04:43:48;;;;;;;7.55;4.32;;;;;;;1.51;86.56;96001.53;5075477;28;20053;-72
2021/03/15 04:46:16;;;;;;;6.82;4.70;;;;;;;1.50;86.59;96003.31;5075547;28;20044;-72
2021/03/15 04:48:44;;;;;;;10.07;4.70;;;;;;;1.48;86.96;95994.91;5075113;28;20040;-72
2021/03/15 04:51:11;;;;;;;7.55;4.03;;;;;;;1.47;87.28;96003.66;5075489;28;20377;-72
2021/03/15 04:53:39;;;;;;;10.55;3.72;;;;;;;1.45;87.53;95994.44;5075491;28;20036;-72
2021/03/15 04:56:12;;;;;;;10.77;4.88;;;;;;;1.42;88.01;95985.28;5075518;28;20045;-72
2021/03/15 04:58:40;;;;;;;8.95;4.30;;;;;;;1.41;88.07;95987.06;5075513;28;20040;-72
2021/03/15 05:01:08;;;;;;;8.90;4.75;;;;;;;1.42;88.01;95983.47;5075820;28;20047;-72
2021/03/15 05:03:36;;;;;;;9.15;4.60;;;;;;;1.45;87.78;95978.94;5075214;28;20036;-72
2021/03/15 05:06:03;;;;;;;7.47;4.72;;;;;;;1.48;87.73;95976.84;5075740;28;20051;-72
2021/03/15 05:08:36;;;;;;;11.45;4.93;;;;;;;1.51;88.04;95975.69;5075232;28;20052;-72
2021/03/15 05:11:03;;;;;;;7.07;4.68;;;;;;;1.48;87.66;95970.88;5075481;28;20056;-71
2021/03/15 05:13:32;;;;;;;7.28;4.20;;;;;;;1.48;87.39;95968.28;5074920;28;20052;-71
2021/03/15 05:16:00;;;;;;;7.60;4.55;;;;;;;1.43;87.82;95961.06;5075334;28;20043;-71
2021/03/15 05:18:28;;;;;;;8.95;4.70;;;;;;;1.36;88.36;95953.16;5075008;28;20496;-71
2021/03/15 05:20:54;;;;;;;9.15;4.97;;;;;;;1.27;88.64;95946.47;5074744;28;20444;-71
2021/03/15 05:23:22;;;;;;;11.48;4.95;;;;;;;1.24;88.72;95949.41;5075196;28;20076;-71
2021/03/15 05:25:51;;;;;;;9.60;4.85;;;;;;;1.25;88.59;95947.63;5074839;28;20366;-72
2021/03/15 05:28:19;;;;;;;8.93;4.85;;;;;;;1.29;88.51;95949.69;5074898;28;20040;-72
2021/03/15 05:30:48;;;;;;;11.82;5.47;;;;;;;1.31;88.48;95949.50;5074766;28;20037;-72
2021/03/15 05:33:18;;;;;;;9.18;5.32;;;;;;;1.29;88.77;95949.69;5074513;28;20028;-72
2021/03/15 05:35:46;;;;;;;12.10;6.28;;;;;;;1.29;88.51;95939.34;5074011;28;20036;-72
2021/03/15 05:38:13;;;;;;;10.38;6.13;;;;;;;1.31;88.43;95947.72;5074858;28;20055;-72
2021/03/15 05:40:43;;;;;;;15.15;6.32;;;;;;;1.32;89.12;95948.53;5075043;28;20043;-72
2021/03/15 05:43:25;;;;;;;12.15;6.50;;;;;;;1.34;89.15;95949.94;5074514;28;20041;-72
2021/03/15 05:46:06;;;;;;;13.27;6.53;;;;;;;1.35;89.39;95936.06;5074641;28;20469;-72
2021/03/15 05:48:54;;;;;;;9.80;5.82;;;;;;;1.36;89.05;95937.66;5073083;28;20035;-72
2021/03/15 05:51:27;;;;;;;10.48;6.25;;;;;;;1.33;89.27;95932.84;5074235;28;20461;-72
2021/03/15 05:54:14;;;;;;;14.05;6.53;;;;;;;1.34;89.83;95933.66;5074415;28;20039;-72
2021/03/15 05:57:04;;;;;;;12.68;5.97;;;;;;;1.34;89.36;95926.69;5074084;28;20047;-72
2021/03/15 05:59:52;;;;;;;15.35;6.60;;;;;;;1.33;89.73;95926.91;5074827;28;20032;-72
2021/03/15 06:02:37;;;;;;;10.50;6.00;;;;;;;1.34;89.86;95931.88;5062098;28;20390;-72
2021/03/15 06:05:25;;;;;;;14.00;6.93;;;;;;;1.35;89.70;95930.91;5074048;28;20028;-72
2021/03/15 06:08:00;;;;;;;10.35;6.05;;;;;;;1.34;89.28;95928.50;5074375;28;20056;-72
2021/03/15 06:11:02;;;;;;;13.55;6.18;;;;;;;1.33;89.71;95930.28;5074287;28;20040;-71
2021/03/15 06:13:31;;;;;;;10.70;6.40;;;;;;;1.25;88.95;95921.78;5064180;28;20373;-71
2021/03/15 06:15:59;;;;;;;11.43;6.20;;;;;;;1.22;88.88;95915.19;5073409;28;20063;-71
2021/03/15 06:18:25;;;;;;;12.18;5.70;;;;;;;1.19;88.73;95920.69;5073837;28;20033;-71
2021/03/15 06:20:51;;;;;;;10.63;5.70;;;;;;;1.15;88.83;95916.84;5073796;28;20431;-71
2021/03/15 06:23:19;;;;;;;8.43;5.07;;;;;;;1.12;88.83;95914.63;5073561;28;20050;-71
2021/03/15 06:25:47;;;;;;;12.20;5.97;;;;;;;1.10;88.70;95919.16;5073681;28;20044;-71
2021/03/15 06:28:18;;;;;;;13.35;5.50;;;;;;;1.09;88.82;95927.84;5073653;28;20029;-71
2021/03/15 06:30:46;;;;;;;9.57;5.90;;;;;;;1.04;88.91;95919.81;5073694;28;20044;-72
2021/03/15 06:33:13;;;;;;;9.13;5.68;;;;;;;1.04;88.87;95915.47;5072996;28;20490;-72
2021/03/15 06:35:43;;;;;;;6.25;4.50;;;;;;;1.01;88.82;95913.22;5073603;28;20053;-72
2021/03/15 06:38:10;;;;;;;7.05;5.53;;;;;;;1.04;89.07;95907.72;5073431;28;20040;-72
2021/03/15 06:40:41;;;;;;;10.90;5.38;;;;;;;1.07;88.90;95907.38;5062545;28;20055;-72
2021/03/15 06:43:14;;;;;;;9.18;5.38;;;;;;;1.06;89.03;95905.75;5073917;28;20051;-72
2021/03/15 06:45:48;;;;;;;8.57;4.90;;;;;;;1.05;89.22;95904.16;5073501;28;20041;-72
2021/03/15 06:48:15;;;;;;;9.25;5.72;;;;;;;1.10;89.30;95913.97;5073296;28;20353;-72
2021/03/15 06:50:41;;;;;;;8.73;5.45;;;;;;;1.08;89.47;95901.22;5073472;28;20412;-72
2021/03/15 06:53:08;;;;;;;10.10;6.10;;;;;;;1.08;89.59;95900.44;5073290;28;20045;-74
2021/03/15 06:55:34;;;;;;;11.05;6.07;;;;;;;1.09;89.66;95899.44;5073361;28;20056;-72
2021/03/15 06:58:20;;;;;;;8.85;6.03;;;;;;;1.13;89.98;95900.72;5073589;28;20346;-72
2021/03/15 07:00:47;;;;;;;10.98;6.13;;;;;;;1.13;90.04;95891.19;5062354;28;20040;-72
2021/03/15 07:03:23;;;;;;;11.90;5.55;;;;;;;1.14;90.58;95886.84;5073068;28;20048;-72
2021/03/15 07:05:57;;;;;;;9.45;5.40;;;;;;;1.20;90.53;95884.38;5073332;28;20384;-72
2021/03/15 07:08:24;;;;;;;7.05;5.15;;;;;;;1.29;90.53;95886.88;5060294;28;20404;-72
2021/03/15 07:10:55;;;;;;;9.73;5.00;;;;;;;1.38;90.55;95893.59;5072852;28;20048;-72
2021/03/15 07:13:25;;;;;;;13.05;5.50;;;;;;;1.49;90.96;95890.59;5073161;28;20449;-73
2021/03/15 07:15:54;;;;;;;9.40;4.57;;;;;;;1.53;90.58;95878.13;5073188;28;20400;-73
2021/03/15 07:18:32;;;;;;;6.60;4.50;;;;;;;1.56;90.70;95877.78;5073544;28;20043;-73
2021/03/15 07:21:01;;;;;;;6.53;4.60;;;;;;;1.56;90.30;95878.59;5073441;28;20040;-73
2021/03/15 07:23:44;;;;;;;6.22;4.22;;;;;;;1.55;90.71;95884.72;5073051;28;20040;-73
2021/03/15 07:26:24;;;;;;;6.63;4.45;;;;;;;1.52;90.38;95882.50;5072779;28;20036;-73
2021/03/15 07:28:51;;;;;;;5.25;3.80;;;;;;;1.55;90.12;95884.72;5073407;28;20036;-73
2021/03/15 07:31:23;;;;;;;5.72;3.85;;;;;;;1.56;90.15;95870.81;5073107;28;20048;-73
2021/03/15 07:33:55;;;;;;;6.82;4.10;;;;;;;1.59;90.44;95874.84;5072851;28;20044;-74
2021/03/15 07:36:28;;;;;;;5.25;3.85;;;;;;;1.64;90.41;95882.88;5073261;28;20404;-74
2021/03/15 07:38:55;;;;;;;7.35;5.45;;;;;;;1.66;90.47;95875.75;5059745;28;20503;-74
2021/03/15 07:41:22;;;;;;;9.75;5.85;;;;;;;1.67;90.29;95882.53;5073051;28;20044;-74
2021/03/15 07:43:50;;;;;;;3.90;3.33;;;;;;;1.69;90.44;95877.19;5074258;28;20047;-73
2021/03/15 07:46:22;;;;;;;7.10;4.07;;;;;;;1.73;90.57;95870.69;5076667;28;20047;-74
2021/03/15 07:48:49;;;;;;;6.22;4.40;;;;;;;1.78;90.26;95886.44;5076941;28;20037;-73
2021/03/15 07:51:31;;;;;;;6.53;4.22;;;;;;;1.78;90.60;95887.25;5076094;28;20382;-74
2021/03/15 07:54:06;;;;;;;8.45;5.32;;;;;;;1.84;90.59;95880.56;5076851;28;20033;-74
2021/03/15 07:56:32;;;;;;;4.22;3.78;;;;;;;1.89;90.43;95886.03;5076897;28;20052;-73
2021/03/15 07:58:59;;;;;;;3.72;3.35;;;;;;;1.99;90.21;95888.34;5075206;28;20485;-73
2021/03/15 08:01:25;;;;;;;4.45;4.03;;;;;;;2.08;90.10;95883.88;5076337;28;20032;-74
2021/03/15 08:03:52;;;;;;;11.73;7.72;;;;;;;2.11;89.64;95892.09;5076673;28;20412;-73
2021/03/15 08:06:21;;;;;;;12.50;9.38;;;;;;;2.17;89.90;95888.00;5075640;28;20041;-73
2021/03/15 08:08:49;;;;;;;11.23;7.47;;;;;;;2.19;89.50;95891.22;5076874;28;20076;-73
2021/03/15 08:11:19;;;;;;;6.95;3.75;;;;;;;2.26;90.14;95892.09;5076117;28;20040;-73
2021/03/15 08:13:50;;;;;;;5.90;4.38;;;;;;;2.34;90.62;95896.38;5076099;28;20483;-73
2021/03/15 08:16:21;;;;;;;2.40;2.15;;;;;;;2.41;90.69;95902.44;5075159;28;20380;-73
2021/03/15 08:18:49;;;;;;;3.20;2.33;;;;;;;2.45;90.23;95893.31;5075935;28;20040;-73
2021/03/15 08:21:32;;;;;;;1.67;1.40;;;;;;;2.53;90.30;95898.41;5076496;28;20033;-73
2021/03/15 08:24:00;;;;;;;1.50;1.40;;;;;;;2.59;90.19;95891.72;5067058;28;20036;-73
2021/03/15 08:26:26;;;;;;;2.58;1.13;;;;;;;2.69;90.39;95900.00;5076025;28;20461;-73
2021/03/15 08:28:56;;;;;;;2.38;1.13;;;;;;;2.75;90.10;95896.69;5075439;28;20057;-73
2021/03/15 08:31:45;;;;;;;1.10;1.00;;;;;;;2.77;89.54;95901.66;5075898;28;20032;-73
2021/03/15 08:34:12;;;;;;;1.23;0.95;;;;;;;2.73;89.39;95898.66;5076142;28;20036;-73
2021/03/15 08:36:41;;;;;;;0.80;0.80;;;;;;;2.71;89.11;95903.22;5075532;28;20048;-73
2021/03/15 08:39:26;;;;;;;1.70;1.60;;;;;;;2.69;89.71;95905.19;5075763;28;20040;-75
2021/03/15 08:42:14;;;;;;;0.80;0.80;;;;;;;2.75;89.87;95911.41;5075807;28;20396;-73
2021/03/15 08:44:42;;;;;;;3.83;2.90;;;;;;;2.80;89.25;95915.06;5075549;28;20469;-73
2021/03/15 08:47:09;;;;;;;1.33;1.10;;;;;;;2.88;89.56;95910.75;5075834;28;20453;-73
2021/03/15 08:49:38;;;;;;;1.05;1.05;;;;;;;2.94;89.51;95912.59;5074106;28;20040;-73
2021/03/15 08:52:04;;;;;;;0.73;0.73;;;;;;;3.04;89.53;95905.34;5075760;28;20036;-73
2021/03/15 08:54:41;;;;;;;0.85;0.80;;;;;;;3.11;89.06;95908.81;5075442;28;20055;-73
2021/03/15 08:57:35;;;;;;;0.70;0.70;;;;;;;3.16;88.95;95913.44;5075053;28;20032;-73
2021/03/15 09:00:34;;;;;;;0.70;0.70;;;;;;;3.16;88.68;95919.41;5059921;28;20036;-73
2021/03/15 09:03:01;;;;;;;0.90;0.90;;;;;;;3.17;88.93;95915.84;5075385;28;20048;-73
2021/03/15 09:05:29;;;;;;;1.48;0.90;;;;;;;3.22;88.82;95910.13;5075122;28;20396;-73
2021/03/15 09:07:56;;;;;;;1.38;1.13;;;;;;;3.26;88.81;95916.53;5075141;28;20497;-73
2021/03/15 09:10:22;;;;;;;1.45;1.00;;;;;;;3.28;88.81;95919.75;5074972;28;20044;-73
2021/03/15 09:13:10;;;;;;;1.02;0.88;;;;;;;3.27;88.53;95920.72;5075535;28;20045;-74
2021/03/15 09:15:50;;;;;;;1.50;0.90;;;;;;;3.25;88.50;95926.09;5075464;28;20044;-74
2021/03/15 09:18:48;;;;;;;1.35;1.25;;;;;;;3.27;88.56;95925.09;5063680;28;20622;-74
2021/03/15 09:21:24;;;;;;;0.77;0.77;;;;;;;3.26;88.87;95926.91;5074861;28;20043;-74
2021/03/15 09:23:50;;;;;;;1.65;0.70;;;;;;;3.43;91.47;95930.84;5074972;28;20039;-71
2021/03/15 09:26:29;;;;;;;2.25;0.90;;;;;;;3.82;89.02;95929.59;5075080;28;20024;-73
2021/03/15 09:28:57;;;;;;;0.77;0.68;;;;;;;3.85;87.88;95933.59;5074507;28;20063;-73
2021/03/15 09:31:24;;;;;;;1.15;0.52;;;;;;;3.77;87.48;95936.31;5074805;28;20040;-73
2021/03/15 09:33:50;;;;;;;0.47;0.47;;;;;;;3.66;87.27;95932.44;5074541;28;20031;-73
2021/03/15 09:36:27;;;;;;;1.50;0.68;;;;;;;3.60;87.55;95930.59;5074544;28;20040;-73
2021/03/15 09:38:55;;;;;;;1.15;0.70;;;;;;;3.58;87.38;95924.78;5073500;28;20059;-73
2021/03/15 09:41:25;;;;;;;0.68;0.68;;;;;;;3.65;88.11;95933.41;5074734;28;20045;-73
2021/03/15 09:43:54;;;;;;;0.57;0.57;;;;;;;3.71;87.79;95935.25;5074631;28;20036;-73
2021/03/15 09:46:29;;;;;;;0.80;0.80;;;;;;;3.77;87.68;95934.53;5074288;28;20052;-73
2021/03/15 09:48:56;;;;;;;1.73;0.82;;;;;;;3.89;88.25;95934.81;5074933;28;20041;-73
2021/03/15 09:51:31;;;;;;;0.90;0.90;;;;;;;3.99;87.87;95937.91;5074109;28;20460;-73
2021/03/15 09:53:59;;;;;;;1.10;1.00;;;;;;;4.06;88.22;95933.53;5074127;28;20036;-73
2021/03/15 09:56:26;;;;;;;1.38;0.90;;;;;;;4.07;87.31;95940.34;5074164;28;20040;-73
2021/03/15 09:58:52;;;;;;;1.58;1.33;;;;;;;4.14;87.52;95942.97;5074356;28;20035;-73
2021/03/15 10:01:20;;;;;;;1.05;0.93;;;;;;;4.20;87.57;95942.22;5073917;28;20047;-73
2021/03/15 10:03:58;;;;;;;4.47;3.45;;;;;;;4.22;86.42;95942.00;5074342;28;20027;-73
2021/03/15 10:06:27;;;;;;;0.93;0.80;;;;;;;4.25;87.20;95937.25;5074060;28;20032;-73
2021/03/15 10:08:54;;;;;;;0.90;0.90;;;;;;;4.30;87.54;95936.69;5073088;28;20049;-73
2021/03/15 10:11:22;;;;;;;0.63;0.63;;;;;;;4.34;87.11;95945.69;5074145;28;20044;-73
2021/03/15 10:14:01;;;;;;;0.80;0.80;;;;;;;4.37;86.65;95947.91;5074530;28;20024;-73
2021/03/15 10:16:28;;;;;;;1.05;0.70;;;;;;;4.39;86.97;95940.75;5073855;28;20036;-73
2021/03/15 10:18:55;;;;;;;1.60;0.70;;;;;;;4.41;86.68;95945.72;5073716;28;20442;-73
2021/03/15 10:21:25;;;;;;;0.85;0.73;;;;;;;4.39;85.53;95947.72;5073372;28;20424;-73
2021/03/15 10:23:51;;;;;;;0.50;0.50;;;;;;;4.38;85.69;95940.94;5073802;28;20041;-73
2021/03/15 10:26:18;;;;;;;0.80;0.80;;;;;;;4.41;85.68;95948.31;5073770;28;20047;-74
2021/03/15 10:28:48;;;;;;;0.80;0.80;;;;;;;4.46;85.33;95949.34;5073068;28;20373;-73
2021/03/15 10:31:14;;;;;;;1.02;1.02;;;;;;;4.59;85.95;95945.22;5073508;28;20047;-73
2021/03/15 10:33:45;;;;;;;2.47;1.10;;;;;;;4.75;85.85;95949.31;5073666;28;20040;-73
2021/03/15 10:36:16;;;;;;;1.10;1.10;;;;;;;4.90;86.02;95943.97;5073496;28;20052;-73
2021/03/15 10:38:42;;;;;;;1.83;1.55;;;;;;;4.98;85.40;95938.63;5074037;28;20420;-73
2021/03/15 10:41:09;;;;;;;1.20;1.10;;;;;;;4.98;84.94;95949.81;5073431;28;20035;-73
2021/03/15 10:43:36;;;;;;;1.55;1.45;;;;;;;4.91;84.90;95941.16;5072816;28;20060;-73
2021/03/15 10:46:23;;;;;;;1.80;1.65;;;;;;;4.81;84.92;95944.16;5073689;28;20043;-73
2021/03/15 10:48:50;;;;;;;1.90;1.80;;;;;;;4.77;84.97;95953.31;5074036;28;20047;-73
2021/03/15 10:51:17;;;;;;;2.03;1.83;;;;;;;4.72;85.10;95950.47;5073307;28;20032;-73
2021/03/15 10:53:48;;;;;;;2.17;1.83;;;;;;;4.79;85.81;95953.13;5073553;28;20053;-73
2021/03/15 10:56:19;;;;;;;2.42;2.22;;;;;;;4.78;85.64;95956.72;5073215;28;20033;-73
2021/03/15 10:58:45;;;;;;;2.95;2.25;;;;;;;4.79;85.64;95964.31;5073197;28;20052;-73
2021/03/15 11:01:12;;;;;;;2.80;2.30;;;;;;;4.72;84.95;95963.47;5072988;28;20063;-73
2021/03/15 11:03:38;;;;;;;2.80;2.30;;;;;;;4.74;85.62;95971.06;5073405;28;20036;-73
2021/03/15 11:06:16;;;;;;;3.13;2.67;;;;;;;4.75;85.89;95972.69;5073779;28;20052;-72
2021/03/15 11:08:53;;;;;;;2.75;2.47;;;;;;;4.78;85.26;95973.09;5073152;28;20071;-73
2021/03/15 11:11:23;;;;;;;3.17;2.50;;;;;;;4.82;85.77;95973.50;5073064;28;20051;-73
2021/03/15 11:13:52;;;;;;;2.65;2.10;;;;;;;4.78;85.12;95972.28;5073334;28;20049;-73
2021/03/15 11:16:29;;;;;;;2.42;2.15;;;;;;;4.74;84.89;95974.47;5073070;28;20035;-73
2021/03/15 11:19:04;;;;;;;2.33;2.13;;;;;;;4.71;84.70;95984.47;5061172;28;20527;-73
2021/03/15 11:21:35;;;;;;;2.67;2.47;;;;;;;4.58;84.91;95986.00;5073106;28;20037;-74
2021/03/15 11:24:03;;;;;;;4.10;2.22;;;;;;;4.53;85.29;95992.75;5073139;28;20040;-73
2021/03/15 11:26:46;;;;;;;2.45;2.25;;;;;;;4.51;85.45;95989.53;5072830;28;20052;-73
2021/03/15 11:29:12;;;;;;;2.40;1.63;;;;;;;4.45;85.22;95997.09;5073354;28;20036;-73
2021/03/15 11:31:49;;;;;;;2.22;1.60;;;;;;;4.43;84.25;95991.28;5072767;28;20045;-73
2021/03/15 11:34:23;;;;;;;2.42;1.80;;;;;;;4.39;85.37;95995.25;5072828;28;20041;-73
2021/03/15 11:36:52;;;;;;;1.50;1.40;;;;;;;4.32;84.23;95997.00;5073393;28;20039;-73
2021/03/15 11:39:19;;;;;;;1.70;1.60;;;;;;;4.29;84.67;95994.00;5073032;28;20043;-73
2021/03/15 11:41:46;;;;;;;2.67;1.50;;;;;;;4.26;84.85;95993.38;5072587;28;20048;-73
2021/03/15 11:44:14;;;;;;;1.63;1.50;;;;;;;4.29;85.36;95994.00;5072723;28;20464;-73
2021/03/15 11:46:41;;;;;;;31.85;15.88;;;;;;;4.66;91.00;95996.22;5072697;28;20040;-73
2021/03/15 11:49:07;;;;;;;1.50;1.40;;;;;;;4.90;85.37;95988.16;5072766;28;20048;-73
2021/03/15 11:51:33;;;;;;;1.48;1.30;;;;;;;5.04;84.49;95990.59;5072740;28;20457;-73
2021/03/15 11:54:00;;;;;;;1.55;1.25;;;;;;;5.22;84.29;95982.25;5072606;28;20036;-73
2021/03/15 11:56:26;;;;;;;1.85;1.40;;;;;;;5.40;84.47;95984.31;5072656;28;20048;-73
2021/03/15 11:58:53;;;;;;;1.60;1.48;;;;;;;5.55;83.70;95991.16;5072657;28;20041;-73